sensor_id;sensor_type;location;lat;lon;timestamp;P1;durP1;ratioP1;P2;durP2;ratioP2
24637;SDS011;12773;50.162;8.548;2022-10-10T00:01:00;3.55;;;2.25;;
24637;SDS011;12773;50.162;8.548;2022-10-10T00:03:48;5.37;;;2.80;;
24637;SDS011;12773;50.162;8.548;2022-10-10T00:06:35;5.90;;;2.95;;
24637;SDS011;12773;50.162;8.548;2022-10-10T00:09:22;6.00;;;2.85;;
24637;SDS011;12773;50.162;8.548;2022-10-10T00:12:10;5.53;;;2.40;;
24637;SDS011;12773;50.162;8.548;2022-10-10T00:14:57;5.80;;;2.75;;
24637;SDS011;12773;50.162;8.548;2022-10-10T00:17:45;7.62;;;2.77;;
24637;SDS011;12773;50.162;8.548;2022-10-10T00:20:32;4.97;;;2.60;;
24637;SDS011;12773;50.162;8.548;2022-10-10T00:23:20;4.12;;;2.77;;
24637;SDS011;12773;50.162;8.548;2022-10-10T00:26:07;6.22;;;3.10;;
24637;SDS011;12773;50.162;8.548;2022-10-10T00:28:56;7.03;;;2.67;;
24637;SDS011;12773;50.162;8.548;2022-10-10T00:31:44;4.25;;;2.50;;
24637;SDS011;12773;50.162;8.548;2022-10-10T00:34:32;5.75;;;2.77;;
24637;SDS011;12773;50.162;8.548;2022-10-10T00:37:19;6.85;;;3.17;;
24637;SDS011;12773;50.162;8.548;2022-10-10T00:40:06;6.58;;;2.75;;
24637;SDS011;12773;50.162;8.548;2022-10-10T00:42:55;9.30;;;3.08;;
24637;SDS011;12773;50.162;8.548;2022-10-10T00:45:43;9.58;;;3.25;;
24637;SDS011;12773;50.162;8.548;2022-10-10T00:48:33;4.53;;;2.90;;
24637;SDS011;12773;50.162;8.548;2022-10-10T00:51:26;5.20;;;2.40;;
24637;SDS011;12773;50.162;8.548;2022-10-10T00:54:13;7.25;;;2.83;;
24637;SDS011;12773;50.162;8.548;2022-10-10T00:57:05;5.37;;;2.58;;
24637;SDS011;12773;50.162;8.548;2022-10-10T00:59:53;8.95;;;2.83;;
24637;SDS011;12773;50.162;8.548;2022-10-10T01:02:41;7.35;;;3.30;;
24637;SDS011;12773;50.162;8.548;2022-10-10T01:05:29;5.22;;;2.75;;
24637;SDS011;12773;50.162;8.548;2022-10-10T01:08:17;7.92;;;2.80;;
24637;SDS011;12773;50.162;8.548;2022-10-10T01:14:08;5.95;;;2.85;;
24637;SDS011;12773;50.162;8.548;2022-10-10T01:17:04;4.78;;;2.67;;
24637;SDS011;12773;50.162;8.548;2022-10-10T01:23:13;5.50;;;2.52;;
24637;SDS011;12773;50.162;8.548;2022-10-10T01:29:31;8.90;;;3.08;;
24637;SDS011;12773;50.162;8.548;2022-10-10T01:32:32;5.58;;;2.55;;
24637;SDS011;12773;50.162;8.548;2022-10-10T01:35:44;4.35;;;2.87;;
24637;SDS011;12773;50.162;8.548;2022-10-10T01:38:40;8.05;;;3.15;;
24637;SDS011;12773;50.162;8.548;2022-10-10T01:41:32;9.18;;;3.60;;
24637;SDS011;12773;50.162;8.548;2022-10-10T01:44:22;6.42;;;2.60;;
24637;SDS011;12773;50.162;8.548;2022-10-10T01:47:10;6.42;;;3.22;;
24637;SDS011;12773;50.162;8.548;2022-10-10T01:49:59;6.75;;;2.67;;
24637;SDS011;12773;50.162;8.548;2022-10-10T01:55:59;6.47;;;3.20;;
24637;SDS011;12773;50.162;8.548;2022-10-10T02:02:18;6.37;;;3.25;;
24637;SDS011;12773;50.162;8.548;2022-10-10T02:05:17;6.92;;;3.45;;
24637;SDS011;12773;50.162;8.548;2022-10-10T02:08:13;6.72;;;3.22;;
24637;SDS011;12773;50.162;8.548;2022-10-10T02:11:10;5.80;;;3.37;;
24637;SDS011;12773;50.162;8.548;2022-10-10T02:14:02;5.97;;;2.87;;
24637;SDS011;12773;50.162;8.548;2022-10-10T02:16:57;5.17;;;2.87;;
24637;SDS011;12773;50.162;8.548;2022-10-10T02:19:48;5.40;;;3.27;;
24637;SDS011;12773;50.162;8.548;2022-10-10T02:22:38;4.65;;;2.77;;
24637;SDS011;12773;50.162;8.548;2022-10-10T02:25:28;7.53;;;3.35;;
24637;SDS011;12773;50.162;8.548;2022-10-10T02:31:09;6.80;;;2.98;;
24637;SDS011;12773;50.162;8.548;2022-10-10T02:34:47;5.72;;;3.27;;
24637;SDS011;12773;50.162;8.548;2022-10-10T02:36:54;6.47;;;2.92;;
24637;SDS011;12773;50.162;8.548;2022-10-10T02:39:43;5.65;;;3.17;;
24637;SDS011;12773;50.162;8.548;2022-10-10T02:42:34;9.20;;;4.40;;
24637;SDS011;12773;50.162;8.548;2022-10-10T02:45:23;6.08;;;3.37;;
24637;SDS011;12773;50.162;8.548;2022-10-10T02:48:13;8.73;;;3.40;;
24637;SDS011;12773;50.162;8.548;2022-10-10T02:51:00;5.60;;;3.42;;
24637;SDS011;12773;50.162;8.548;2022-10-10T02:53:48;4.60;;;3.25;;
24637;SDS011;12773;50.162;8.548;2022-10-10T02:56:35;3.58;;;2.90;;
24637;SDS011;12773;50.162;8.548;2022-10-10T02:59:23;10.58;;;3.60;;
24637;SDS011;12773;50.162;8.548;2022-10-10T03:02:11;7.70;;;3.67;;
24637;SDS011;12773;50.162;8.548;2022-10-10T03:04:59;5.50;;;3.12;;
24637;SDS011;12773;50.162;8.548;2022-10-10T03:07:46;7.40;;;3.00;;
24637;SDS011;12773;50.162;8.548;2022-10-10T03:10:33;8.60;;;3.42;;
24637;SDS011;12773;50.162;8.548;2022-10-10T03:13:20;9.05;;;3.45;;
24637;SDS011;12773;50.162;8.548;2022-10-10T03:16:08;9.35;;;3.10;;
24637;SDS011;12773;50.162;8.548;2022-10-10T03:18:56;5.42;;;3.20;;
24637;SDS011;12773;50.162;8.548;2022-10-10T03:21:44;6.55;;;3.45;;
24637;SDS011;12773;50.162;8.548;2022-10-10T03:24:31;5.22;;;3.10;;
24637;SDS011;12773;50.162;8.548;2022-10-10T03:27:18;11.63;;;4.03;;
24637;SDS011;12773;50.162;8.548;2022-10-10T03:30:06;7.87;;;4.00;;
24637;SDS011;12773;50.162;8.548;2022-10-10T03:32:53;6.83;;;3.40;;
24637;SDS011;12773;50.162;8.548;2022-10-10T03:35:40;8.28;;;3.50;;
24637;SDS011;12773;50.162;8.548;2022-10-10T03:38:27;5.20;;;3.42;;
24637;SDS011;12773;50.162;8.548;2022-10-10T03:41:15;9.90;;;3.95;;
24637;SDS011;12773;50.162;8.548;2022-10-10T03:44:03;4.55;;;3.27;;
24637;SDS011;12773;50.162;8.548;2022-10-10T03:46:50;9.20;;;3.72;;
24637;SDS011;12773;50.162;8.548;2022-10-10T03:49:37;4.22;;;3.15;;
24637;SDS011;12773;50.162;8.548;2022-10-10T03:52:25;5.45;;;3.33;;
24637;SDS011;12773;50.162;8.548;2022-10-10T03:55:13;5.65;;;3.58;;
24637;SDS011;12773;50.162;8.548;2022-10-10T03:58:00;10.55;;;3.22;;
24637;SDS011;12773;50.162;8.548;2022-10-10T04:00:59;4.33;;;3.15;;
24637;SDS011;12773;50.162;8.548;2022-10-10T04:03:43;10.60;;;3.70;;
24637;SDS011;12773;50.162;8.548;2022-10-10T04:06:32;8.00;;;3.25;;
24637;SDS011;12773;50.162;8.548;2022-10-10T04:09:20;7.00;;;3.65;;
24637;SDS011;12773;50.162;8.548;2022-10-10T04:12:08;6.37;;;3.95;;
24637;SDS011;12773;50.162;8.548;2022-10-10T04:14:55;8.88;;;4.10;;
24637;SDS011;12773;50.162;8.548;2022-10-10T04:17:42;6.67;;;3.72;;
24637;SDS011;12773;50.162;8.548;2022-10-10T04:20:30;11.53;;;3.77;;
24637;SDS011;12773;50.162;8.548;2022-10-10T04:23:17;8.70;;;3.90;;
24637;SDS011;12773;50.162;8.548;2022-10-10T04:26:06;5.53;;;3.52;;
24637;SDS011;12773;50.162;8.548;2022-10-10T04:28:53;10.40;;;4.17;;
24637;SDS011;12773;50.162;8.548;2022-10-10T04:31:41;10.50;;;3.80;;
24637;SDS011;12773;50.162;8.548;2022-10-10T04:34:29;6.67;;;3.62;;
24637;SDS011;12773;50.162;8.548;2022-10-10T04:37:16;11.60;;;4.20;;
24637;SDS011;12773;50.162;8.548;2022-10-10T04:40:04;7.92;;;3.72;;
24637;SDS011;12773;50.162;8.548;2022-10-10T04:42:52;6.37;;;3.70;;
24637;SDS011;12773;50.162;8.548;2022-10-10T04:45:40;8.50;;;3.80;;
24637;SDS011;12773;50.162;8.548;2022-10-10T04:48:27;9.40;;;4.15;;
24637;SDS011;12773;50.162;8.548;2022-10-10T04:51:15;5.28;;;3.85;;
24637;SDS011;12773;50.162;8.548;2022-10-10T04:54:02;6.40;;;3.55;;
24637;SDS011;12773;50.162;8.548;2022-10-10T04:56:50;8.58;;;3.98;;
24637;SDS011;12773;50.162;8.548;2022-10-10T04:59:38;7.65;;;3.95;;
24637;SDS011;12773;50.162;8.548;2022-10-10T05:02:25;7.30;;;4.33;;
24637;SDS011;12773;50.162;8.548;2022-10-10T05:05:13;8.10;;;3.60;;
24637;SDS011;12773;50.162;8.548;2022-10-10T05:08:00;9.70;;;4.10;;
24637;SDS011;12773;50.162;8.548;2022-10-10T05:10:50;10.30;;;4.50;;
24637;SDS011;12773;50.162;8.548;2022-10-10T05:13:38;9.25;;;4.70;;
24637;SDS011;12773;50.162;8.548;2022-10-10T05:16:25;19.05;;;5.22;;
24637;SDS011;12773;50.162;8.548;2022-10-10T05:19:13;10.88;;;4.67;;
24637;SDS011;12773;50.162;8.548;2022-10-10T05:22:00;10.28;;;4.70;;
24637;SDS011;12773;50.162;8.548;2022-10-10T05:24:48;13.78;;;4.00;;
24637;SDS011;12773;50.162;8.548;2022-10-10T05:27:35;13.15;;;4.60;;
24637;SDS011;12773;50.162;8.548;2022-10-10T05:30:22;12.70;;;4.90;;
24637;SDS011;12773;50.162;8.548;2022-10-10T05:33:10;12.85;;;5.22;;
24637;SDS011;12773;50.162;8.548;2022-10-10T05:36:09;12.78;;;5.03;;
24637;SDS011;12773;50.162;8.548;2022-10-10T05:38:51;9.25;;;4.50;;
24637;SDS011;12773;50.162;8.548;2022-10-10T05:41:38;9.75;;;5.00;;
24637;SDS011;12773;50.162;8.548;2022-10-10T05:44:25;11.03;;;4.45;;
24637;SDS011;12773;50.162;8.548;2022-10-10T05:47:13;11.65;;;5.05;;
24637;SDS011;12773;50.162;8.548;2022-10-10T05:50:00;9.98;;;4.70;;
24637;SDS011;12773;50.162;8.548;2022-10-10T05:52:48;12.20;;;5.60;;
24637;SDS011;12773;50.162;8.548;2022-10-10T05:55:36;11.88;;;5.40;;
24637;SDS011;12773;50.162;8.548;2022-10-10T05:58:24;11.90;;;5.12;;
24637;SDS011;12773;50.162;8.548;2022-10-10T06:01:12;11.90;;;4.90;;
24637;SDS011;12773;50.162;8.548;2022-10-10T06:03:59;9.00;;;4.45;;
24637;SDS011;12773;50.162;8.548;2022-10-10T06:06:46;9.83;;;4.67;;
24637;SDS011;12773;50.162;8.548;2022-10-10T06:09:34;10.03;;;4.97;;
24637;SDS011;12773;50.162;8.548;2022-10-10T06:12:22;9.70;;;4.72;;
24637;SDS011;12773;50.162;8.548;2022-10-10T06:15:09;10.88;;;5.12;;
24637;SDS011;12773;50.162;8.548;2022-10-10T06:17:57;12.45;;;5.03;;
24637;SDS011;12773;50.162;8.548;2022-10-10T06:20:45;13.68;;;5.33;;
24637;SDS011;12773;50.162;8.548;2022-10-10T06:23:32;12.00;;;4.75;;
24637;SDS011;12773;50.162;8.548;2022-10-10T06:26:21;10.25;;;5.10;;
24637;SDS011;12773;50.162;8.548;2022-10-10T06:29:08;12.82;;;5.12;;
24637;SDS011;12773;50.162;8.548;2022-10-10T06:31:56;9.40;;;5.30;;
24637;SDS011;12773;50.162;8.548;2022-10-10T06:34:43;8.15;;;4.35;;
24637;SDS011;12773;50.162;8.548;2022-10-10T06:37:31;14.33;;;5.05;;
24637;SDS011;12773;50.162;8.548;2022-10-10T06:40:18;8.60;;;4.72;;
24637;SDS011;12773;50.162;8.548;2022-10-10T06:43:06;8.03;;;4.55;;
24637;SDS011;12773;50.162;8.548;2022-10-10T06:45:55;10.60;;;4.53;;
24637;SDS011;12773;50.162;8.548;2022-10-10T06:48:43;10.72;;;4.72;;
24637;SDS011;12773;50.162;8.548;2022-10-10T06:51:32;12.55;;;5.10;;
24637;SDS011;12773;50.162;8.548;2022-10-10T06:54:19;7.55;;;4.08;;
24637;SDS011;12773;50.162;8.548;2022-10-10T06:57:06;6.65;;;4.08;;
24637;SDS011;12773;50.162;8.548;2022-10-10T06:59:54;6.03;;;4.17;;
24637;SDS011;12773;50.162;8.548;2022-10-10T07:02:41;10.10;;;5.03;;
24637;SDS011;12773;50.162;8.548;2022-10-10T07:05:29;8.73;;;4.53;;
24637;SDS011;12773;50.162;8.548;2022-10-10T07:08:17;7.33;;;4.80;;
24637;SDS011;12773;50.162;8.548;2022-10-10T07:11:05;10.35;;;4.70;;
24637;SDS011;12773;50.162;8.548;2022-10-10T07:13:54;8.90;;;4.78;;
24637;SDS011;12773;50.162;8.548;2022-10-10T07:16:42;7.65;;;4.95;;
24637;SDS011;12773;50.162;8.548;2022-10-10T07:19:29;10.72;;;4.70;;
24637;SDS011;12773;50.162;8.548;2022-10-10T07:22:17;11.38;;;5.42;;
24637;SDS011;12773;50.162;8.548;2022-10-10T07:25:05;11.80;;;6.20;;
24637;SDS011;12773;50.162;8.548;2022-10-10T07:27:52;9.50;;;5.25;;
24637;SDS011;12773;50.162;8.548;2022-10-10T07:30:42;10.65;;;5.22;;
24637;SDS011;12773;50.162;8.548;2022-10-10T07:33:35;12.33;;;5.03;;
24637;SDS011;12773;50.162;8.548;2022-10-10T07:36:21;7.75;;;5.33;;
24637;SDS011;12773;50.162;8.548;2022-10-10T07:39:08;8.58;;;5.03;;
24637;SDS011;12773;50.162;8.548;2022-10-10T07:41:57;9.03;;;5.17;;
24637;SDS011;12773;50.162;8.548;2022-10-10T07:44:45;9.30;;;5.40;;
24637;SDS011;12773;50.162;8.548;2022-10-10T07:47:32;11.85;;;5.67;;
24637;SDS011;12773;50.162;8.548;2022-10-10T07:50:19;7.47;;;4.85;;
24637;SDS011;12773;50.162;8.548;2022-10-10T07:53:09;9.15;;;5.25;;
24637;SDS011;12773;50.162;8.548;2022-10-10T07:55:56;9.15;;;5.28;;
24637;SDS011;12773;50.162;8.548;2022-10-10T07:58:44;10.63;;;4.90;;
24637;SDS011;12773;50.162;8.548;2022-10-10T08:01:31;10.03;;;5.03;;
24637;SDS011;12773;50.162;8.548;2022-10-10T08:04:18;12.45;;;4.87;;
24637;SDS011;12773;50.162;8.548;2022-10-10T08:07:06;12.30;;;5.03;;
24637;SDS011;12773;50.162;8.548;2022-10-10T08:09:54;12.75;;;4.87;;
24637;SDS011;12773;50.162;8.548;2022-10-10T08:12:41;11.90;;;4.95;;
24637;SDS011;12773;50.162;8.548;2022-10-10T08:15:30;9.50;;;5.28;;
24637;SDS011;12773;50.162;8.548;2022-10-10T08:18:19;8.18;;;5.33;;
24637;SDS011;12773;50.162;8.548;2022-10-10T08:21:08;10.50;;;4.92;;
24637;SDS011;12773;50.162;8.548;2022-10-10T08:23:57;8.25;;;4.55;;
24637;SDS011;12773;50.162;8.548;2022-10-10T08:26:44;7.40;;;4.87;;
24637;SDS011;12773;50.162;8.548;2022-10-10T08:29:32;11.95;;;4.95;;
24637;SDS011;12773;50.162;8.548;2022-10-10T08:32:19;10.85;;;4.62;;
24637;SDS011;12773;50.162;8.548;2022-10-10T08:35:07;10.32;;;4.83;;
24637;SDS011;12773;50.162;8.548;2022-10-10T08:37:54;9.43;;;4.62;;
24637;SDS011;12773;50.162;8.548;2022-10-10T08:40:46;6.97;;;4.65;;
24637;SDS011;12773;50.162;8.548;2022-10-10T08:43:38;10.75;;;5.35;;
24637;SDS011;12773;50.162;8.548;2022-10-10T08:49:39;12.68;;;5.97;;
24637;SDS011;12773;50.162;8.548;2022-10-10T08:52:40;11.33;;;6.10;;
24637;SDS011;12773;50.162;8.548;2022-10-10T08:55:36;12.45;;;6.05;;
24637;SDS011;12773;50.162;8.548;2022-10-10T08:58:28;10.90;;;6.33;;
24637;SDS011;12773;50.162;8.548;2022-10-10T09:01:31;9.80;;;6.00;;
24637;SDS011;12773;50.162;8.548;2022-10-10T09:04:15;8.90;;;5.92;;
24637;SDS011;12773;50.162;8.548;2022-10-10T09:10:17;11.60;;;5.70;;
24637;SDS011;12773;50.162;8.548;2022-10-10T09:16:15;7.40;;;4.97;;
24637;SDS011;12773;50.162;8.548;2022-10-10T09:22:18;7.42;;;5.20;;
24637;SDS011;12773;50.162;8.548;2022-10-10T09:25:21;9.88;;;5.80;;
24637;SDS011;12773;50.162;8.548;2022-10-10T09:31:34;10.03;;;5.15;;
24637;SDS011;12773;50.162;8.548;2022-10-10T09:37:34;9.38;;;5.58;;
24637;SDS011;12773;50.162;8.548;2022-10-10T09:43:19;8.15;;;5.65;;
24637;SDS011;12773;50.162;8.548;2022-10-10T09:46:06;10.93;;;5.62;;
24637;SDS011;12773;50.162;8.548;2022-10-10T09:48:54;10.10;;;5.67;;
24637;SDS011;12773;50.162;8.548;2022-10-10T09:51:44;9.70;;;5.85;;
24637;SDS011;12773;50.162;8.548;2022-10-10T09:54:32;10.80;;;5.17;;
24637;SDS011;12773;50.162;8.548;2022-10-10T09:57:19;9.73;;;5.40;;
24637;SDS011;12773;50.162;8.548;2022-10-10T10:03:22;11.25;;;5.22;;
24637;SDS011;12773;50.162;8.548;2022-10-10T10:06:10;11.00;;;6.00;;
24637;SDS011;12773;50.162;8.548;2022-10-10T10:09:00;13.32;;;5.20;;
24637;SDS011;12773;50.162;8.548;2022-10-10T10:11:53;11.05;;;5.78;;
24637;SDS011;12773;50.162;8.548;2022-10-10T10:14:42;10.08;;;5.97;;
24637;SDS011;12773;50.162;8.548;2022-10-10T10:17:31;16.67;;;6.08;;
24637;SDS011;12773;50.162;8.548;2022-10-10T10:26:16;10.18;;;5.45;;
24637;SDS011;12773;50.162;8.548;2022-10-10T10:29:07;9.30;;;5.30;;
24637;SDS011;12773;50.162;8.548;2022-10-10T10:32:03;12.70;;;5.75;;
24637;SDS011;12773;50.162;8.548;2022-10-10T10:35:12;10.25;;;5.15;;
24637;SDS011;12773;50.162;8.548;2022-10-10T10:38:16;11.55;;;5.70;;
24637;SDS011;12773;50.162;8.548;2022-10-10T10:41:15;13.28;;;5.85;;
24637;SDS011;12773;50.162;8.548;2022-10-10T10:44:21;9.63;;;5.87;;
24637;SDS011;12773;50.162;8.548;2022-10-10T10:50:26;9.95;;;5.78;;
24637;SDS011;12773;50.162;8.548;2022-10-10T10:53:25;13.22;;;6.10;;
24637;SDS011;12773;50.162;8.548;2022-10-10T11:08:29;13.58;;;5.30;;
24637;SDS011;12773;50.162;8.548;2022-10-10T11:23:19;11.18;;;5.00;;
24637;SDS011;12773;50.162;8.548;2022-10-10T11:29:20;10.30;;;5.65;;
24637;SDS011;12773;50.162;8.548;2022-10-10T11:32:15;9.55;;;5.42;;
24637;SDS011;12773;50.162;8.548;2022-10-10T11:35:01;14.05;;;5.40;;
24637;SDS011;12773;50.162;8.548;2022-10-10T11:38:38;11.33;;;5.72;;
24637;SDS011;12773;50.162;8.548;2022-10-10T11:42:11;10.43;;;5.22;;
24637;SDS011;12773;50.162;8.548;2022-10-10T11:44:38;14.07;;;5.30;;
24637;SDS011;12773;50.162;8.548;2022-10-10T11:47:34;11.50;;;5.65;;
24637;SDS011;12773;50.162;8.548;2022-10-10T11:50:28;12.20;;;5.28;;
24637;SDS011;12773;50.162;8.548;2022-10-10T11:53:19;10.88;;;5.33;;
24637;SDS011;12773;50.162;8.548;2022-10-10T11:56:26;10.53;;;5.30;;
24637;SDS011;12773;50.162;8.548;2022-10-10T11:59:26;10.60;;;5.37;;
24637;SDS011;12773;50.162;8.548;2022-10-10T12:02:22;11.90;;;5.50;;
24637;SDS011;12773;50.162;8.548;2022-10-10T12:08:16;11.95;;;4.78;;
24637;SDS011;12773;50.162;8.548;2022-10-10T12:14:12;12.95;;;4.72;;
24637;SDS011;12773;50.162;8.548;2022-10-10T12:17:00;10.95;;;4.72;;
24637;SDS011;12773;50.162;8.548;2022-10-10T12:19:47;13.83;;;4.67;;
24637;SDS011;12773;50.162;8.548;2022-10-10T12:22:36;10.60;;;4.50;;
24637;SDS011;12773;50.162;8.548;2022-10-10T12:25:37;15.10;;;4.72;;
24637;SDS011;12773;50.162;8.548;2022-10-10T12:28:34;10.08;;;4.55;;
24637;SDS011;12773;50.162;8.548;2022-10-10T12:31:28;12.10;;;4.28;;
24637;SDS011;12773;50.162;8.548;2022-10-10T12:34:38;11.45;;;4.70;;
24637;SDS011;12773;50.162;8.548;2022-10-10T12:37:27;14.70;;;5.20;;
24637;SDS011;12773;50.162;8.548;2022-10-10T12:40:17;9.03;;;4.47;;
24637;SDS011;12773;50.162;8.548;2022-10-10T12:43:35;12.07;;;4.12;;
24637;SDS011;12773;50.162;8.548;2022-10-10T12:46:28;13.78;;;4.47;;
24637;SDS011;12773;50.162;8.548;2022-10-10T12:49:18;7.95;;;4.45;;
24637;SDS011;12773;50.162;8.548;2022-10-10T12:52:11;5.92;;;3.60;;
24637;SDS011;12773;50.162;8.548;2022-10-10T12:55:07;12.50;;;3.77;;
24637;SDS011;12773;50.162;8.548;2022-10-10T12:58:03;8.50;;;4.35;;
24637;SDS011;12773;50.162;8.548;2022-10-10T13:00:59;8.75;;;3.40;;
24637;SDS011;12773;50.162;8.548;2022-10-10T13:03:49;9.28;;;3.83;;
24637;SDS011;12773;50.162;8.548;2022-10-10T13:06:40;9.15;;;3.72;;
24637;SDS011;12773;50.162;8.548;2022-10-10T13:09:30;8.85;;;3.72;;
24637;SDS011;12773;50.162;8.548;2022-10-10T13:12:22;10.43;;;3.47;;
24637;SDS011;12773;50.162;8.548;2022-10-10T13:15:18;6.83;;;3.70;;
24637;SDS011;12773;50.162;8.548;2022-10-10T13:18:06;9.10;;;3.80;;
24637;SDS011;12773;50.162;8.548;2022-10-10T13:20:54;9.18;;;3.80;;
24637;SDS011;12773;50.162;8.548;2022-10-10T13:23:45;9.93;;;3.15;;
24637;SDS011;12773;50.162;8.548;2022-10-10T13:26:37;8.68;;;3.37;;
24637;SDS011;12773;50.162;8.548;2022-10-10T13:29:28;8.65;;;3.70;;
24637;SDS011;12773;50.162;8.548;2022-10-10T13:32:17;7.55;;;3.80;;
24637;SDS011;12773;50.162;8.548;2022-10-10T13:35:14;8.50;;;3.62;;
24637;SDS011;12773;50.162;8.548;2022-10-10T13:38:09;9.10;;;3.40;;
24637;SDS011;12773;50.162;8.548;2022-10-10T13:40:58;11.65;;;3.35;;
24637;SDS011;12773;50.162;8.548;2022-10-10T13:43:47;7.45;;;3.60;;
24637;SDS011;12773;50.162;8.548;2022-10-10T13:46:35;10.40;;;3.55;;
24637;SDS011;12773;50.162;8.548;2022-10-10T13:49:26;9.90;;;3.00;;
24637;SDS011;12773;50.162;8.548;2022-10-10T13:52:23;4.83;;;3.20;;
24637;SDS011;12773;50.162;8.548;2022-10-10T13:55:24;7.90;;;3.15;;
24637;SDS011;12773;50.162;8.548;2022-10-10T13:58:12;7.37;;;3.22;;
24637;SDS011;12773;50.162;8.548;2022-10-10T14:01:01;5.53;;;3.27;;
24637;SDS011;12773;50.162;8.548;2022-10-10T14:03:50;9.98;;;3.10;;
24637;SDS011;12773;50.162;8.548;2022-10-10T14:06:40;6.08;;;3.17;;
24637;SDS011;12773;50.162;8.548;2022-10-10T14:09:31;9.90;;;3.30;;
24637;SDS011;12773;50.162;8.548;2022-10-10T14:15:34;7.40;;;2.80;;
24637;SDS011;12773;50.162;8.548;2022-10-10T14:18:24;10.00;;;3.20;;
24637;SDS011;12773;50.162;8.548;2022-10-10T14:21:12;8.08;;;3.30;;
24637;SDS011;12773;50.162;8.548;2022-10-10T14:23:59;10.48;;;3.12;;
24637;SDS011;12773;50.162;8.548;2022-10-10T14:26:47;7.22;;;3.52;;
24637;SDS011;12773;50.162;8.548;2022-10-10T14:29:35;7.65;;;3.02;;
24637;SDS011;12773;50.162;8.548;2022-10-10T14:32:23;12.40;;;3.42;;
24637;SDS011;12773;50.162;8.548;2022-10-10T14:35:11;9.50;;;3.67;;
24637;SDS011;12773;50.162;8.548;2022-10-10T14:37:58;10.03;;;3.72;;
24637;SDS011;12773;50.162;8.548;2022-10-10T14:40:46;11.90;;;3.90;;
24637;SDS011;12773;50.162;8.548;2022-10-10T14:43:34;7.95;;;3.05;;
24637;SDS011;12773;50.162;8.548;2022-10-10T14:46:23;11.10;;;3.10;;
24637;SDS011;12773;50.162;8.548;2022-10-10T14:49:17;12.13;;;3.42;;
24637;SDS011;12773;50.162;8.548;2022-10-10T14:52:06;11.73;;;3.42;;
24637;SDS011;12773;50.162;8.548;2022-10-10T14:54:53;10.50;;;3.60;;
24637;SDS011;12773;50.162;8.548;2022-10-10T14:57:40;8.83;;;3.30;;
24637;SDS011;12773;50.162;8.548;2022-10-10T15:00:28;11.03;;;3.95;;
24637;SDS011;12773;50.162;8.548;2022-10-10T15:03:15;15.15;;;4.30;;
24637;SDS011;12773;50.162;8.548;2022-10-10T15:06:03;9.20;;;3.70;;
24637;SDS011;12773;50.162;8.548;2022-10-10T15:08:51;11.00;;;3.52;;
24637;SDS011;12773;50.162;8.548;2022-10-10T15:11:39;10.15;;;3.83;;
24637;SDS011;12773;50.162;8.548;2022-10-10T15:14:26;9.05;;;3.75;;
24637;SDS011;12773;50.162;8.548;2022-10-10T15:17:14;10.72;;;3.67;;
24637;SDS011;12773;50.162;8.548;2022-10-10T15:20:02;7.58;;;3.95;;
24637;SDS011;12773;50.162;8.548;2022-10-10T15:22:52;10.53;;;3.50;;
24637;SDS011;12773;50.162;8.548;2022-10-10T15:25:42;7.70;;;3.67;;
24637;SDS011;12773;50.162;8.548;2022-10-10T15:28:30;9.63;;;3.77;;
24637;SDS011;12773;50.162;8.548;2022-10-10T15:31:18;8.38;;;3.65;;
24637;SDS011;12773;50.162;8.548;2022-10-10T15:34:06;12.30;;;4.08;;
24637;SDS011;12773;50.162;8.548;2022-10-10T15:36:54;10.40;;;3.90;;
24637;SDS011;12773;50.162;8.548;2022-10-10T15:39:41;10.98;;;3.67;;
24637;SDS011;12773;50.162;8.548;2022-10-10T15:42:29;7.62;;;3.35;;
24637;SDS011;12773;50.162;8.548;2022-10-10T15:45:17;7.62;;;3.92;;
24637;SDS011;12773;50.162;8.548;2022-10-10T15:48:06;9.38;;;3.62;;
24637;SDS011;12773;50.162;8.548;2022-10-10T15:50:53;9.53;;;3.77;;
24637;SDS011;12773;50.162;8.548;2022-10-10T15:53:41;10.55;;;3.87;;
24637;SDS011;12773;50.162;8.548;2022-10-10T15:56:28;11.55;;;3.40;;
24637;SDS011;12773;50.162;8.548;2022-10-10T15:59:16;12.03;;;4.22;;
24637;SDS011;12773;50.162;8.548;2022-10-10T16:02:04;9.20;;;3.98;;
24637;SDS011;12773;50.162;8.548;2022-10-10T16:04:52;11.90;;;3.72;;
24637;SDS011;12773;50.162;8.548;2022-10-10T16:07:39;9.00;;;3.22;;
24637;SDS011;12773;50.162;8.548;2022-10-10T16:10:29;10.40;;;3.67;;
24637;SDS011;12773;50.162;8.548;2022-10-10T16:13:16;10.30;;;4.00;;
24637;SDS011;12773;50.162;8.548;2022-10-10T16:16:04;9.13;;;4.10;;
24637;SDS011;12773;50.162;8.548;2022-10-10T16:18:53;8.00;;;3.50;;
24637;SDS011;12773;50.162;8.548;2022-10-10T16:21:40;13.80;;;4.35;;
24637;SDS011;12773;50.162;8.548;2022-10-10T16:24:28;8.35;;;3.75;;
24637;SDS011;12773;50.162;8.548;2022-10-10T16:27:15;10.90;;;3.98;;
24637;SDS011;12773;50.162;8.548;2022-10-10T16:30:03;13.15;;;3.90;;
24637;SDS011;12773;50.162;8.548;2022-10-10T16:32:51;11.05;;;3.75;;
24637;SDS011;12773;50.162;8.548;2022-10-10T16:35:40;10.32;;;3.52;;
24637;SDS011;12773;50.162;8.548;2022-10-10T16:38:27;5.15;;;3.30;;
24637;SDS011;12773;50.162;8.548;2022-10-10T16:41:15;13.65;;;3.90;;
24637;SDS011;12773;50.162;8.548;2022-10-10T16:44:05;9.48;;;4.35;;
24637;SDS011;12773;50.162;8.548;2022-10-10T16:46:53;10.70;;;4.58;;
24637;SDS011;12773;50.162;8.548;2022-10-10T16:49:40;12.82;;;4.50;;
24637;SDS011;12773;50.162;8.548;2022-10-10T16:52:28;10.88;;;4.20;;
24637;SDS011;12773;50.162;8.548;2022-10-10T16:55:17;8.68;;;4.05;;
24637;SDS011;12773;50.162;8.548;2022-10-10T16:58:05;7.60;;;3.45;;
24637;SDS011;12773;50.162;8.548;2022-10-10T17:00:53;9.75;;;3.83;;
24637;SDS011;12773;50.162;8.548;2022-10-10T17:03:41;11.48;;;3.98;;
24637;SDS011;12773;50.162;8.548;2022-10-10T17:06:28;8.73;;;3.83;;
24637;SDS011;12773;50.162;8.548;2022-10-10T17:09:19;12.07;;;3.85;;
24637;SDS011;12773;50.162;8.548;2022-10-10T17:12:07;10.05;;;4.33;;
24637;SDS011;12773;50.162;8.548;2022-10-10T17:14:54;11.08;;;4.12;;
24637;SDS011;12773;50.162;8.548;2022-10-10T17:17:42;11.38;;;4.87;;
24637;SDS011;12773;50.162;8.548;2022-10-10T17:20:29;9.90;;;4.53;;
24637;SDS011;12773;50.162;8.548;2022-10-10T17:23:17;10.45;;;4.30;;
24637;SDS011;12773;50.162;8.548;2022-10-10T17:26:06;8.60;;;4.58;;
24637;SDS011;12773;50.162;8.548;2022-10-10T17:28:55;11.28;;;4.97;;
24637;SDS011;12773;50.162;8.548;2022-10-10T17:31:44;12.93;;;4.55;;
24637;SDS011;12773;50.162;8.548;2022-10-10T17:34:31;9.45;;;5.33;;
24637;SDS011;12773;50.162;8.548;2022-10-10T17:37:19;17.32;;;7.35;;
24637;SDS011;12773;50.162;8.548;2022-10-10T17:40:07;16.02;;;6.87;;
24637;SDS011;12773;50.162;8.548;2022-10-10T17:42:54;14.73;;;6.65;;
24637;SDS011;12773;50.162;8.548;2022-10-10T17:45:43;16.80;;;7.78;;
24637;SDS011;12773;50.162;8.548;2022-10-10T17:48:31;15.45;;;8.68;;
24637;SDS011;12773;50.162;8.548;2022-10-10T17:51:18;18.20;;;8.10;;
24637;SDS011;12773;50.162;8.548;2022-10-10T17:54:07;20.50;;;7.58;;
24637;SDS011;12773;50.162;8.548;2022-10-10T17:56:55;15.72;;;8.03;;
24637;SDS011;12773;50.162;8.548;2022-10-10T17:59:43;20.10;;;8.45;;
24637;SDS011;12773;50.162;8.548;2022-10-10T18:02:31;16.73;;;8.28;;
24637;SDS011;12773;50.162;8.548;2022-10-10T18:05:18;18.80;;;9.33;;
24637;SDS011;12773;50.162;8.548;2022-10-10T18:08:06;22.85;;;8.95;;
24637;SDS011;12773;50.162;8.548;2022-10-10T18:10:53;15.48;;;9.18;;
24637;SDS011;12773;50.162;8.548;2022-10-10T18:13:41;20.37;;;9.48;;
24637;SDS011;12773;50.162;8.548;2022-10-10T18:16:29;24.92;;;10.03;;
24637;SDS011;12773;50.162;8.548;2022-10-10T18:19:19;19.95;;;9.43;;
24637;SDS011;12773;50.162;8.548;2022-10-10T18:22:06;18.52;;;8.83;;
24637;SDS011;12773;50.162;8.548;2022-10-10T18:24:54;16.27;;;8.40;;